sensor_id;sensor_type;location;lat;lon;timestamp;pressure;altitude;pressure_sealevel;temperature;humidity
56594;BME280;42474;51.660;5.824;2023-08-20T00:01:23;1020.1;;;16.9;100
56594;BME280;42474;51.660;5.824;2023-08-20T00:05:22;1020;;;16.8;100
56594;BME280;42474;51.660;5.824;2023-08-20T00:09:22;1020;;;16.8;100
56594;BME280;42474;51.660;5.824;2023-08-20T00:13:22;1020;;;16.7;100
56594;BME280;42474;51.660;5.824;2023-08-20T00:17:22;1020;;;16.7;100
56594;BME280;42474;51.660;5.824;2023-08-20T00:21:22;1019.9;;;16.8;100
56594;BME280;42474;51.660;5.824;2023-08-20T00:25:22;1020;;;16.8;100
56594;BME280;42474;51.660;5.824;2023-08-20T00:29:22;1020;;;16.8;100
56594;BME280;42474;51.660;5.824;2023-08-20T00:33:22;1020;;;16.8;100
56594;BME280;42474;51.660;5.824;2023-08-20T00:37:22;1020.2;;;16.8;100
56594;BME280;42474;51.660;5.824;2023-08-20T00:41:22;1020.1;;;16.8;100
56594;BME280;42474;51.660;5.824;2023-08-20T00:45:22;1020;;;16.9;100
56594;BME280;42474;51.660;5.824;2023-08-20T00:49:22;1020.1;;;17.1;100
56594;BME280;42474;51.660;5.824;2023-08-20T00:53:22;1020.2;;;17;100
56594;BME280;42474;51.660;5.824;2023-08-20T00:57:22;1020.2;;;16.9;100
56594;BME280;42474;51.660;5.824;2023-08-20T01:01:22;1020.3;;;16.8;100
56594;BME280;42474;51.660;5.824;2023-08-20T01:05:22;1020.3;;;16.8;100
56594;BME280;42474;51.660;5.824;2023-08-20T01:09:26;1020.3;;;16.9;100
56594;BME280;42474;51.660;5.824;2023-08-20T01:13:22;1020.4;;;16.8;100
56594;BME280;42474;51.660;5.824;2023-08-20T01:17:22;1020.4;;;16.9;100
56594;BME280;42474;51.660;5.824;2023-08-20T01:21:23;1020.5;;;17;100
56594;BME280;42474;51.660;5.824;2023-08-20T01:25:24;1020.6;;;17;100
56594;BME280;42474;51.660;5.824;2023-08-20T01:29:22;1020.7;;;17.2;100
56594;BME280;42474;51.660;5.824;2023-08-20T01:33:22;1020.7;;;17.3;100
56594;BME280;42474;51.660;5.824;2023-08-20T01:37:22;1020.7;;;17.4;100
56594;BME280;42474;51.660;5.824;2023-08-20T01:41:22;1020.8;;;17.4;100
56594;BME280;42474;51.660;5.824;2023-08-20T01:45:22;1020.8;;;17.5;100
56594;BME280;42474;51.660;5.824;2023-08-20T01:49:22;1020.7;;;17.7;100
56594;BME280;42474;51.660;5.824;2023-08-20T01:53:22;1020.8;;;17.7;100
56594;BME280;42474;51.660;5.824;2023-08-20T01:57:22;1020.8;;;17.8;100
56594;BME280;42474;51.660;5.824;2023-08-20T02:01:22;1020.8;;;17.8;100
56594;BME280;42474;51.660;5.824;2023-08-20T02:05:22;1020.8;;;17.9;100
56594;BME280;42474;51.660;5.824;2023-08-20T02:09:22;1020.8;;;17.9;100
56594;BME280;42474;51.660;5.824;2023-08-20T02:13:22;1020.7;;;17.9;100
56594;BME280;42474;51.660;5.824;2023-08-20T02:17:22;1020.8;;;17.9;100
56594;BME280;42474;51.660;5.824;2023-08-20T02:21:22;1020.9;;;17.8;100
56594;BME280;42474;51.660;5.824;2023-08-20T02:25:22;1020.9;;;17.8;100
56594;BME280;42474;51.660;5.824;2023-08-20T02:29:22;1020.9;;;17.9;100
56594;BME280;42474;51.660;5.824;2023-08-20T02:33:22;1020.8;;;18;100
56594;BME280;42474;51.660;5.824;2023-08-20T02:37:22;1020.8;;;18;100
56594;BME280;42474;51.660;5.824;2023-08-20T02:41:22;1020.8;;;18;100
56594;BME280;42474;51.660;5.824;2023-08-20T02:45:22;1020.8;;;18;100
56594;BME280;42474;51.660;5.824;2023-08-20T02:49:22;1020.9;;;18;100
56594;BME280;42474;51.660;5.824;2023-08-20T02:53:22;1020.9;;;17.9;100
56594;BME280;42474;51.660;5.824;2023-08-20T02:57:22;1020.9;;;17.8;100
56594;BME280;42474;51.660;5.824;2023-08-20T03:01:22;1020.9;;;17.7;100
56594;BME280;42474;51.660;5.824;2023-08-20T03:05:22;1020.8;;;17.6;100
56594;BME280;42474;51.660;5.824;2023-08-20T03:09:22;1020.7;;;17.5;100
56594;BME280;42474;51.660;5.824;2023-08-20T03:13:22;1020.7;;;17.4;100
56594;BME280;42474;51.660;5.824;2023-08-20T03:17:22;1020.7;;;17.3;100
56594;BME280;42474;51.660;5.824;2023-08-20T03:21:22;1020.7;;;17.2;100
56594;BME280;42474;51.660;5.824;2023-08-20T03:25:22;1020.7;;;17.2;100
56594;BME280;42474;51.660;5.824;2023-08-20T03:29:22;1020.7;;;17.1;100
56594;BME280;42474;51.660;5.824;2023-08-20T03:33:22;1020.7;;;17;100
56594;BME280;42474;51.660;5.824;2023-08-20T03:37:22;1020.7;;;16.9;100
56594;BME280;42474;51.660;5.824;2023-08-20T03:41:22;1020.7;;;16.8;100
56594;BME280;42474;51.660;5.824;2023-08-20T03:45:22;1020.7;;;16.8;100
56594;BME280;42474;51.660;5.824;2023-08-20T03:49:22;1020.7;;;16.8;100
56594;BME280;42474;51.660;5.824;2023-08-20T03:53:22;1020.8;;;16.7;100
56594;BME280;42474;51.660;5.824;2023-08-20T03:57:22;1020.8;;;16.6;100
56594;BME280;42474;51.660;5.824;2023-08-20T04:01:22;1020.8;;;16.6;100
56594;BME280;42474;51.660;5.824;2023-08-20T04:05:22;1020.8;;;16.6;100
56594;BME280;42474;51.660;5.824;2023-08-20T04:09:22;1020.8;;;16.6;100
56594;BME280;42474;51.660;5.824;2023-08-20T04:13:22;1020.8;;;16.5;100
56594;BME280;42474;51.660;5.824;2023-08-20T04:17:22;1020.8;;;16.5;100
56594;BME280;42474;51.660;5.824;2023-08-20T04:21:22;1020.9;;;16.5;100
56594;BME280;42474;51.660;5.824;2023-08-20T04:25:22;1020.9;;;16.4;100
56594;BME280;42474;51.660;5.824;2023-08-20T04:29:22;1020.9;;;16.2;100
56594;BME280;42474;51.660;5.824;2023-08-20T04:33:22;1021;;;16.2;100
56594;BME280;42474;51.660;5.824;2023-08-20T04:37:22;1021;;;16.2;100
56594;BME280;42474;51.660;5.824;2023-08-20T04:41:22;1021;;;16.2;100
56594;BME280;42474;51.660;5.824;2023-08-20T04:45:22;1021.1;;;16.2;100
56594;BME280;42474;51.660;5.824;2023-08-20T04:49:22;1021.1;;;16.1;100
56594;BME280;42474;51.660;5.824;2023-08-20T04:53:22;1021.1;;;16.1;100
56594;BME280;42474;51.660;5.824;2023-08-20T04:57:22;1021.1;;;16.1;100
56594;BME280;42474;51.660;5.824;2023-08-20T05:01:22;1021.1;;;16.1;100
56594;BME280;42474;51.660;5.824;2023-08-20T05:05:22;1021.2;;;16.1;100
56594;BME280;42474;51.660;5.824;2023-08-20T05:09:22;1021.2;;;16.2;100
56594;BME280;42474;51.660;5.824;2023-08-20T05:13:22;1021.2;;;16.2;100
56594;BME280;42474;51.660;5.824;2023-08-20T05:17:22;1021.2;;;16.3;100
56594;BME280;42474;51.660;5.824;2023-08-20T05:21:22;1021.1;;;16.7;100
56594;BME280;42474;51.660;5.824;2023-08-20T05:25:22;1021.1;;;16.8;100
56594;BME280;42474;51.660;5.824;2023-08-20T05:29:22;1021.2;;;17;100
56594;BME280;42474;51.660;5.824;2023-08-20T05:33:22;1021.2;;;17.1;100
56594;BME280;42474;51.660;5.824;2023-08-20T05:37:22;1021.3;;;17.1;100
56594;BME280;42474;51.660;5.824;2023-08-20T05:41:22;1021.4;;;17.2;100
56594;BME280;42474;51.660;5.824;2023-08-20T05:45:22;1021.4;;;17.2;100
56594;BME280;42474;51.660;5.824;2023-08-20T05:49:22;1021.4;;;17.1;100
56594;BME280;42474;51.660;5.824;2023-08-20T05:53:22;1021.4;;;17.5;100
56594;BME280;42474;51.660;5.824;2023-08-20T05:57:22;1021.4;;;17.6;100
56594;BME280;42474;51.660;5.824;2023-08-20T06:01:22;1021.4;;;17.8;100
56594;BME280;42474;51.660;5.824;2023-08-20T06:05:22;1021.4;;;17.9;100
56594;BME280;42474;51.660;5.824;2023-08-20T06:13:22;1021.4;;;18.1;100
56594;BME280;42474;51.660;5.824;2023-08-20T06:17:22;1021.4;;;18.2;100
56594;BME280;42474;51.660;5.824;2023-08-20T06:21:22;1021.4;;;18.4;100
56594;BME280;42474;51.660;5.824;2023-08-20T06:25:22;1021.5;;;18.6;100
56594;BME280;42474;51.660;5.824;2023-08-20T06:29:22;1021.4;;;18.8;100
56594;BME280;42474;51.660;5.824;2023-08-20T06:33:22;1021.5;;;19.1;100
56594;BME280;42474;51.660;5.824;2023-08-20T06:37:22;1021.5;;;19.3;100
56594;BME280;42474;51.660;5.824;2023-08-20T06:41:22;1021.5;;;19.5;100
56594;BME280;42474;51.660;5.824;2023-08-20T06:45:22;1021.5;;;19.8;100
56594;BME280;42474;51.660;5.824;2023-08-20T06:49:22;1021.6;;;20.2;100
56594;BME280;42474;51.660;5.824;2023-08-20T06:53:22;1021.6;;;20.3;100
56594;BME280;42474;51.660;5.824;2023-08-20T06:57:22;1021.7;;;20.7;100
56594;BME280;42474;51.660;5.824;2023-08-20T07:05:22;1021.6;;;21.2;97
56594;BME280;42474;51.660;5.824;2023-08-20T07:09:22;1021.6;;;21.6;94
56594;BME280;42474;51.660;5.824;2023-08-20T07:13:22;1021.6;;;21.7;89
56594;BME280;42474;51.660;5.824;2023-08-20T07:17:22;1021.6;;;21.9;86
56594;BME280;42474;51.660;5.824;2023-08-20T07:21:22;1021.6;;;22.3;83
56594;BME280;42474;51.660;5.824;2023-08-20T07:25:22;1021.6;;;22.6;85
56594;BME280;42474;51.660;5.824;2023-08-20T07:29:22;1021.6;;;22.8;80.5
56594;BME280;42474;51.660;5.824;2023-08-20T07:33:22;1021.5;;;22.9;77.5
56594;BME280;42474;51.660;5.824;2023-08-20T07:37:22;1021.5;;;23.3;78.5
56594;BME280;42474;51.660;5.824;2023-08-20T07:41:22;1021.6;;;23.6;75.5
56594;BME280;42474;51.660;5.824;2023-08-20T07:45:22;1021.5;;;23.7;73
56594;BME280;42474;51.660;5.824;2023-08-20T07:49:22;1021.5;;;23.8;74.5
56594;BME280;42474;51.660;5.824;2023-08-20T07:53:22;1021.6;;;24;72
56594;BME280;42474;51.660;5.824;2023-08-20T07:57:22;1021.6;;;23.8;71.5
56594;BME280;42474;51.660;5.824;2023-08-20T08:01:22;1021.6;;;24;70.5
56594;BME280;42474;51.660;5.824;2023-08-20T08:05:22;1021.7;;;24.3;73
56594;BME280;42474;51.660;5.824;2023-08-20T08:09:25;1021.7;;;24.2;70.5
56594;BME280;42474;51.660;5.824;2023-08-20T08:13:22;1021.7;;;24.5;72
56594;BME280;42474;51.660;5.824;2023-08-20T08:17:22;1021.7;;;24.3;73.5
56594;BME280;42474;51.660;5.824;2023-08-20T08:21:22;1021.8;;;24.8;66.5
56594;BME280;42474;51.660;5.824;2023-08-20T08:25:22;1021.8;;;24.9;67
56594;BME280;42474;51.660;5.824;2023-08-20T08:29:22;1021.7;;;25.2;67
56594;BME280;42474;51.660;5.824;2023-08-20T08:33:22;1021.8;;;25.2;65
56594;BME280;42474;51.660;5.824;2023-08-20T08:37:22;1021.8;;;25;65.5
56594;BME280;42474;51.660;5.824;2023-08-20T08:41:22;1021.9;;;24.8;67.5
56594;BME280;42474;51.660;5.824;2023-08-20T08:45:22;1021.9;;;25.2;67
56594;BME280;42474;51.660;5.824;2023-08-20T08:49:22;1021.9;;;25.4;62.5
56594;BME280;42474;51.660;5.824;2023-08-20T08:53:22;1021.9;;;25.6;63.5
56594;BME280;42474;51.660;5.824;2023-08-20T08:57:22;1021.9;;;25.7;64.5
56594;BME280;42474;51.660;5.824;2023-08-20T09:01:23;1021.8;;;25.7;64.5
56594;BME280;42474;51.660;5.824;2023-08-20T09:05:22;1021.8;;;25.7;64
56594;BME280;42474;51.660;5.824;2023-08-20T09:09:22;1021.8;;;25.9;66
56594;BME280;42474;51.660;5.824;2023-08-20T09:13:23;1021.9;;;25.8;63
56594;BME280;42474;51.660;5.824;2023-08-20T09:17:24;1021.9;;;25.7;68
56594;BME280;42474;51.660;5.824;2023-08-20T09:21:22;1021.9;;;25.8;65.5
56594;BME280;42474;51.660;5.824;2023-08-20T09:25:23;1021.9;;;26;62
56594;BME280;42474;51.660;5.824;2023-08-20T09:29:22;1021.9;;;26.2;59.5
56594;BME280;42474;51.660;5.824;2023-08-20T09:33:22;1021.9;;;26;61
56594;BME280;42474;51.660;5.824;2023-08-20T09:37:23;1021.9;;;26;61
56594;BME280;42474;51.660;5.824;2023-08-20T09:41:22;1021.9;;;25.9;57.5
56594;BME280;42474;51.660;5.824;2023-08-20T09:45:22;1021.9;;;25.8;59.5
56594;BME280;42474;51.660;5.824;2023-08-20T09:49:22;1021.8;;;26.3;59
56594;BME280;42474;51.660;5.824;2023-08-20T09:53:25;1021.8;;;26.5;54
56594;BME280;42474;51.660;5.824;2023-08-20T09:57:26;1021.8;;;26.7;53.5
56594;BME280;42474;51.660;5.824;2023-08-20T10:01:22;1021.8;;;27;55
56594;BME280;42474;51.660;5.824;2023-08-20T10:05:23;1021.8;;;27.1;56
56594;BME280;42474;51.660;5.824;2023-08-20T10:09:22;1021.8;;;27.1;50.5
56594;BME280;42474;51.660;5.824;2023-08-20T10:13:23;1021.9;;;26.9;51
56594;BME280;42474;51.660;5.824;2023-08-20T10:17:22;1021.9;;;26.8;52
56594;BME280;42474;51.660;5.824;2023-08-20T10:21:23;1021.8;;;26.9;50
56594;BME280;42474;51.660;5.824;2023-08-20T10:25:23;1021.8;;;27.2;50.5
56594;BME280;42474;51.660;5.824;2023-08-20T10:29:38;1021.8;;;27.1;50.5
56594;BME280;42474;51.660;5.824;2023-08-20T10:33:22;1021.8;;;27.3;49
56594;BME280;42474;51.660;5.824;2023-08-20T10:37:26;1021.8;;;27;48.5
56594;BME280;42474;51.660;5.824;2023-08-20T10:41:24;1021.8;;;27.2;50.5
56594;BME280;42474;51.660;5.824;2023-08-20T10:45:22;1021.8;;;27.5;50.5
56594;BME280;42474;51.660;5.824;2023-08-20T10:49:22;1021.7;;;27.4;49.5
56594;BME280;42474;51.660;5.824;2023-08-20T10:53:22;1021.7;;;27.6;48
56594;BME280;42474;51.660;5.824;2023-08-20T10:57:22;1021.7;;;27.9;50.5
56594;BME280;42474;51.660;5.824;2023-08-20T11:01:22;1021.8;;;27.8;45.5
56594;BME280;42474;51.660;5.824;2023-08-20T11:05:22;1021.8;;;27.6;47.5
56594;BME280;42474;51.660;5.824;2023-08-20T11:09:22;1021.8;;;27.7;46.5
56594;BME280;42474;51.660;5.824;2023-08-20T11:13:22;1021.9;;;27.7;45.5
56594;BME280;42474;51.660;5.824;2023-08-20T11:17:22;1021.9;;;27.7;47
56594;BME280;42474;51.660;5.824;2023-08-20T11:21:22;1021.8;;;27.9;45
56594;BME280;42474;51.660;5.824;2023-08-20T11:25:22;1021.8;;;27.9;43
56594;BME280;42474;51.660;5.824;2023-08-20T11:29:22;1021.8;;;28.1;44.5
56594;BME280;42474;51.660;5.824;2023-08-20T11:33:22;1021.8;;;28.1;42
56594;BME280;42474;51.660;5.824;2023-08-20T11:37:22;1021.8;;;28.2;44.5
56594;BME280;42474;51.660;5.824;2023-08-20T11:41:23;1021.7;;;28.1;43.5
56594;BME280;42474;51.660;5.824;2023-08-20T11:45:22;1021.7;;;28.3;43
56594;BME280;42474;51.660;5.824;2023-08-20T11:49:27;1021.6;;;27.9;41.5
56594;BME280;42474;51.660;5.824;2023-08-20T11:53:22;1021.7;;;28.2;43.5
56594;BME280;42474;51.660;5.824;2023-08-20T11:57:22;1021.6;;;28.6;45
56594;BME280;42474;51.660;5.824;2023-08-20T12:01:22;1021.6;;;28.5;42
56594;BME280;42474;51.660;5.824;2023-08-20T12:05:26;1021.6;;;28.2;42.5
56594;BME280;42474;51.660;5.824;2023-08-20T12:09:23;1021.5;;;28;42
56594;BME280;42474;51.660;5.824;2023-08-20T12:13:22;1021.5;;;28.1;42.5
56594;BME280;42474;51.660;5.824;2023-08-20T12:17:22;1021.3;;;28.4;45
56594;BME280;42474;51.660;5.824;2023-08-20T12:21:22;1021.3;;;28.6;45
56594;BME280;42474;51.660;5.824;2023-08-20T12:25:22;1021.2;;;28.6;44.5
56594;BME280;42474;51.660;5.824;2023-08-20T12:29:22;1021.1;;;28.9;44
56594;BME280;42474;51.660;5.824;2023-08-20T12:33:22;1021.1;;;28.8;45.5
56594;BME280;42474;51.660;5.824;2023-08-20T12:37:22;1021.1;;;29.1;43
56594;BME280;42474;51.660;5.824;2023-08-20T12:41:22;1021;;;29.2;43.5
56594;BME280;42474;51.660;5.824;2023-08-20T12:45:22;1021.1;;;29.2;41
56594;BME280;42474;51.660;5.824;2023-08-20T12:49:22;1021.1;;;29.2;43
56594;BME280;42474;51.660;5.824;2023-08-20T12:53:22;1021.1;;;29.3;41.5
56594;BME280;42474;51.660;5.824;2023-08-20T12:57:22;1021.2;;;29;42
56594;BME280;42474;51.660;5.824;2023-08-20T13:01:22;1021.2;;;29.4;40
56594;BME280;42474;51.660;5.824;2023-08-20T13:05:23;1021.1;;;29.5;42
56594;BME280;42474;51.660;5.824;2023-08-20T13:09:22;1021.2;;;29.9;40
56594;BME280;42474;51.660;5.824;2023-08-20T13:13:23;1021.2;;;29.9;40
56594;BME280;42474;51.660;5.824;2023-08-20T13:17:22;1021.2;;;29.9;40
56594;BME280;42474;51.660;5.824;2023-08-20T13:21:22;1021.2;;;30.2;39.5
56594;BME280;42474;51.660;5.824;2023-08-20T13:25:22;1021.1;;;30.4;38
56594;BME280;42474;51.660;5.824;2023-08-20T13:29:22;1021.2;;;30.7;39
56594;BME280;42474;51.660;5.824;2023-08-20T13:33:22;1021.2;;;31;38.5
56594;BME280;42474;51.660;5.824;2023-08-20T13:37:22;1021.2;;;31.3;39
56594;BME280;42474;51.660;5.824;2023-08-20T13:41:22;1021.1;;;31.7;38.5
56594;BME280;42474;51.660;5.824;2023-08-20T13:45:22;1021.1;;;32;36
56594;BME280;42474;51.660;5.824;2023-08-20T13:49:22;1021;;;31.2;37.5
56594;BME280;42474;51.660;5.824;2023-08-20T13:53:22;1021.1;;;31.7;36
56594;BME280;42474;51.660;5.824;2023-08-20T13:57:22;1021;;;32;35.5
56594;BME280;42474;51.660;5.824;2023-08-20T14:01:22;1021.1;;;31.1;36.5
56594;BME280;42474;51.660;5.824;2023-08-20T14:05:22;1021;;;31.3;36.5
56594;BME280;42474;51.660;5.824;2023-08-20T14:09:22;1021;;;31.4;38
56594;BME280;42474;51.660;5.824;2023-08-20T14:13:22;1021;;;31.4;36.5
56594;BME280;42474;51.660;5.824;2023-08-20T14:17:22;1020.9;;;31.3;37
56594;BME280;42474;51.660;5.824;2023-08-20T14:21:22;1020.9;;;30.6;37
56594;BME280;42474;51.660;5.824;2023-08-20T14:25:22;1020.9;;;30.5;41
56594;BME280;42474;51.660;5.824;2023-08-20T14:29:22;1020.9;;;30.4;38
56594;BME280;42474;51.660;5.824;2023-08-20T14:33:22;1021;;;29.8;40
56594;BME280;42474;51.660;5.824;2023-08-20T14:37:22;1020.9;;;29.7;43
56594;BME280;42474;51.660;5.824;2023-08-20T14:41:22;1020.9;;;30;42
56594;BME280;42474;51.660;5.824;2023-08-20T14:45:22;1020.9;;;29.8;41
56594;BME280;42474;51.660;5.824;2023-08-20T14:49:22;1021;;;29.1;41
56594;BME280;42474;51.660;5.824;2023-08-20T14:53:22;1020.9;;;29.7;42.5
56594;BME280;42474;51.660;5.824;2023-08-20T14:57:22;1020.9;;;29.7;43.5
56594;BME280;42474;51.660;5.824;2023-08-20T15:01:22;1020.9;;;30.6;39
56594;BME280;42474;51.660;5.824;2023-08-20T15:05:22;1020.9;;;30.3;40
56594;BME280;42474;51.660;5.824;2023-08-20T15:09:22;1020.9;;;29.9;40.5
56594;BME280;42474;51.660;5.824;2023-08-20T15:13:22;1021;;;29;41.5
56594;BME280;42474;51.660;5.824;2023-08-20T15:17:22;1021;;;28.3;42.5
56594;BME280;42474;51.660;5.824;2023-08-20T15:21:22;1020.9;;;27.9;44.5
56594;BME280;42474;51.660;5.824;2023-08-20T15:25:22;1021;;;27.7;47.5
56594;BME280;42474;51.660;5.824;2023-08-20T15:29:22;1020.9;;;27.9;47
56594;BME280;42474;51.660;5.824;2023-08-20T15:33:22;1020.9;;;27.9;47
56594;BME280;42474;51.660;5.824;2023-08-20T15:37:22;1020.9;;;27.5;45.5
56594;BME280;42474;51.660;5.824;2023-08-20T15:41:22;1020.9;;;27.3;47
56594;BME280;42474;51.660;5.824;2023-08-20T15:45:22;1020.9;;;27;48
56594;BME280;42474;51.660;5.824;2023-08-20T15:49:22;1021;;;27.1;48.5
56594;BME280;42474;51.660;5.824;2023-08-20T15:53:24;1020.9;;;27.3;49.5
56594;BME280;42474;51.660;5.824;2023-08-20T15:57:22;1020.9;;;27.4;48.5
56594;BME280;42474;51.660;5.824;2023-08-20T16:01:22;1020.9;;;27.7;46.5
56594;BME280;42474;51.660;5.824;2023-08-20T16:05:22;1020.9;;;27.7;47
56594;BME280;42474;51.660;5.824;2023-08-20T16:09:22;1020.8;;;28.1;46.5
56594;BME280;42474;51.660;5.824;2023-08-20T16:13:23;1020.8;;;28.3;47
56594;BME280;42474;51.660;5.824;2023-08-20T16:17:22;1020.8;;;28.6;46
56594;BME280;42474;51.660;5.824;2023-08-20T16:21:22;1020.7;;;28.8;44.5
56594;BME280;42474;51.660;5.824;2023-08-20T16:25:22;1020.7;;;28.5;45.5
56594;BME280;42474;51.660;5.824;2023-08-20T16:29:22;1020.8;;;28.2;43.5
56594;BME280;42474;51.660;5.824;2023-08-20T16:33:22;1020.8;;;28.1;44.5
56594;BME280;42474;51.660;5.824;2023-08-20T16:37:22;1020.8;;;28.4;43.5
56594;BME280;42474;51.660;5.824;2023-08-20T16:41:22;1020.8;;;28.4;44
56594;BME280;42474;51.660;5.824;2023-08-20T16:45:22;1020.7;;;28.3;44.5
56594;BME280;42474;51.660;5.824;2023-08-20T16:49:22;1020.7;;;28.7;44
56594;BME280;42474;51.660;5.824;2023-08-20T16:53:22;1020.7;;;28.4;45
56594;BME280;42474;51.660;5.824;2023-08-20T16:57:22;1020.7;;;27.8;45.5
56594;BME280;42474;51.660;5.824;2023-08-20T17:01:22;1020.8;;;27.5;48
56594;BME280;42474;51.660;5.824;2023-08-20T17:05:22;1020.8;;;27.2;49.5
56594;BME280;42474;51.660;5.824;2023-08-20T17:09:22;1020.8;;;27.2;50.5
56594;BME280;42474;51.660;5.824;2023-08-20T17:13:22;1020.8;;;27.4;50
56594;BME280;42474;51.660;5.824;2023-08-20T17:17:26;1020.8;;;27.6;48.5
56594;BME280;42474;51.660;5.824;2023-08-20T17:21:22;1020.8;;;27.2;49.5
56594;BME280;42474;51.660;5.824;2023-08-20T17:25:22;1020.8;;;26.8;50.5
56594;BME280;42474;51.660;5.824;2023-08-20T17:29:22;1020.8;;;26.6;52
56594;BME280;42474;51.660;5.824;2023-08-20T17:33:22;1020.8;;;26.8;53
56594;BME280;42474;51.660;5.824;2023-08-20T17:37:22;1020.7;;;26.9;53.5
56594;BME280;42474;51.660;5.824;2023-08-20T17:41:22;1020.7;;;26.8;53
56594;BME280;42474;51.660;5.824;2023-08-20T17:45:23;1020.7;;;26.6;50.5
56594;BME280;42474;51.660;5.824;2023-08-20T17:49:23;1020.7;;;26.4;54.5
56594;BME280;42474;51.660;5.824;2023-08-20T17:53:24;1020.7;;;25.8;55
56594;BME280;42474;51.660;5.824;2023-08-20T17:57:22;1020.7;;;25.6;57
56594;BME280;42474;51.660;5.824;2023-08-20T18:01:23;1020.8;;;25.5;57.5
56594;BME280;42474;51.660;5.824;2023-08-20T18:05:23;1020.8;;;25.2;58.5
56594;BME280;42474;51.660;5.824;2023-08-20T18:09:22;1020.7;;;24.9;60.5
56594;BME280;42474;51.660;5.824;2023-08-20T18:13:23;1020.7;;;24.6;61.5
56594;BME280;42474;51.660;5.824;2023-08-20T18:17:22;1020.8;;;24.3;62
56594;BME280;42474;51.660;5.824;2023-08-20T18:21:22;1020.9;;;24;63.5
56594;BME280;42474;51.660;5.824;2023-08-20T18:25:22;1020.9;;;23.5;65.5
56594;BME280;42474;51.660;5.824;2023-08-20T18:29:23;1021;;;23.4;68
56594;BME280;42474;51.660;5.824;2023-08-20T18:33:22;1021;;;23.3;68.5
56594;BME280;42474;51.660;5.824;2023-08-20T18:37:22;1021;;;23.3;69
56594;BME280;42474;51.660;5.824;2023-08-20T18:41:22;1021;;;23.1;69.5
56594;BME280;42474;51.660;5.824;2023-08-20T18:45:22;1021.1;;;23;70
56594;BME280;42474;51.660;5.824;2023-08-20T18:49:22;1021.2;;;22.9;71
56594;BME280;42474;51.660;5.824;2023-08-20T18:53:22;1021.2;;;22.9;71.5
56594;BME280;42474;51.660;5.824;2023-08-20T18:57:22;1021.2;;;22.8;72.5
56594;BME280;42474;51.660;5.824;2023-08-20T19:01:22;1021.2;;;22.8;73
56594;BME280;42474;51.660;5.824;2023-08-20T19:05:22;1021.3;;;22.7;73.5
56594;BME280;42474;51.660;5.824;2023-08-20T19:09:22;1021.3;;;22.7;74.5
56594;BME280;42474;51.660;5.824;2023-08-20T19:13:23;1021.3;;;22.6;73.5
56594;BME280;42474;51.660;5.824;2023-08-20T19:17:22;1021.3;;;22.5;73
56594;BME280;42474;51.660;5.824;2023-08-20T19:21:22;1021.4;;;22.3;73.5
56594;BME280;42474;51.660;5.824;2023-08-20T19:25:22;1021.4;;;22.3;75.5
56594;BME280;42474;51.660;5.824;2023-08-20T19:29:22;1021.5;;;22.2;76.5
56594;BME280;42474;51.660;5.824;2023-08-20T19:33:22;1021.5;;;22;77.5
56594;BME280;42474;51.660;5.824;2023-08-20T19:37:23;1021.5;;;22.1;76.5
56594;BME280;42474;51.660;5.824;2023-08-20T19:41:22;1021.5;;;22;78
56594;BME280;42474;51.660;5.824;2023-08-20T19:45:23;1021.6;;;22;77.5
56594;BME280;42474;51.660;5.824;2023-08-20T19:49:23;1021.6;;;22;79
56594;BME280;42474;51.660;5.824;2023-08-20T19:53:22;1021.6;;;21.9;79.5
56594;BME280;42474;51.660;5.824;2023-08-20T19:57:22;1021.7;;;21.9;79.5
56594;BME280;42474;51.660;5.824;2023-08-20T20:01:23;1021.6;;;21.7;79.5
56594;BME280;42474;51.660;5.824;2023-08-20T20:05:23;1021.7;;;21.6;80.5
56594;BME280;42474;51.660;5.824;2023-08-20T20:09:22;1021.8;;;21.5;80
56594;BME280;42474;51.660;5.824;2023-08-20T20:13:23;1021.8;;;21.4;80
56594;BME280;42474;51.660;5.824;2023-08-20T20:17:22;1021.8;;;21.3;80.5
56594;BME280;42474;51.660;5.824;2023-08-20T20:21:22;1021.8;;;21.3;81
56594;BME280;42474;51.660;5.824;2023-08-20T20:25:22;1021.8;;;21.3;79.5
56594;BME280;42474;51.660;5.824;2023-08-20T20:29:22;1021.9;;;21.3;80
56594;BME280;42474;51.660;5.824;2023-08-20T20:33:22;1021.9;;;21.3;79.5
56594;BME280;42474;51.660;5.824;2023-08-20T20:37:23;1021.9;;;21.2;79.5
56594;BME280;42474;51.660;5.824;2023-08-20T20:41:22;1022;;;21.2;79
56594;BME280;42474;51.660;5.824;2023-08-20T20:45:23;1022;;;21.1;79.5
56594;BME280;42474;51.660;5.824;2023-08-20T20:49:23;1022;;;20.9;81
56594;BME280;42474;51.660;5.824;2023-08-20T20:53:23;1022;;;20.7;80.5
56594;BME280;42474;51.660;5.824;2023-08-20T20:57:22;1022;;;20.7;81.5
56594;BME280;42474;51.660;5.824;2023-08-20T21:01:23;1022.1;;;20.7;82
56594;BME280;42474;51.660;5.824;2023-08-20T21:05:23;1022.1;;;20.7;80
56594;BME280;42474;51.660;5.824;2023-08-20T21:09:22;1022.1;;;20.8;80
56594;BME280;42474;51.660;5.824;2023-08-20T21:13:23;1022;;;20.8;81
56594;BME280;42474;51.660;5.824;2023-08-20T21:17:23;1022;;;20.6;80.5
56594;BME280;42474;51.660;5.824;2023-08-20T21:21:22;1022.2;;;20.6;80.5
56594;BME280;42474;51.660;5.824;2023-08-20T21:25:23;1022.2;;;20.4;81.5
56594;BME280;42474;51.660;5.824;2023-08-20T21:29:23;1022.3;;;20.4;81.5
56594;BME280;42474;51.660;5.824;2023-08-20T21:33:23;1022.3;;;20.3;82
56594;BME280;42474;51.660;5.824;2023-08-20T21:37:23;1022.3;;;20.3;82.5
56594;BME280;42474;51.660;5.824;2023-08-20T21:41:23;1022.4;;;20.3;82.5
56594;BME280;42474;51.660;5.824;2023-08-20T21:45:23;1022.4;;;20.3;82
56594;BME280;42474;51.660;5.824;2023-08-20T21:49:23;1022.4;;;20.3;83
56594;BME280;42474;51.660;5.824;2023-08-20T21:53:22;1022.5;;;20.3;83
56594;BME280;42474;51.660;5.824;2023-08-20T21:57:23;1022.5;;;20.3;84
56594;BME280;42474;51.660;5.824;2023-08-20T22:01:23;1022.6;;;20.3;85.5
56594;BME280;42474;51.660;5.824;2023-08-20T22:05:23;1022.5;;;20.2;85
56594;BME280;42474;51.660;5.824;2023-08-20T22:09:23;1022.5;;;20.1;86.5
56594;BME280;42474;51.660;5.824;2023-08-20T22:13:23;1022.5;;;19.9;87.5
56594;BME280;42474;51.660;5.824;2023-08-20T22:17:23;1022.5;;;19.9;87
56594;BME280;42474;51.660;5.824;2023-08-20T22:21:22;1022.5;;;19.9;86
56594;BME280;42474;51.660;5.824;2023-08-20T22:25:23;1022.5;;;19.9;86.5
56594;BME280;42474;51.660;5.824;2023-08-20T22:29:23;1022.5;;;19.8;88
56594;BME280;42474;51.660;5.824;2023-08-20T22:33:23;1022.5;;;19.7;89
56594;BME280;42474;51.660;5.824;2023-08-20T22:37:23;1022.4;;;19.7;88
56594;BME280;42474;51.660;5.824;2023-08-20T22:41:23;1022.4;;;19.7;88.5
56594;BME280;42474;51.660;5.824;2023-08-20T22:45:23;1022.5;;;19.6;88.5
56594;BME280;42474;51.660;5.824;2023-08-20T22:49:23;1022.4;;;19.7;89
56594;BME280;42474;51.660;5.824;2023-08-20T22:53:23;1022.4;;;19.5;91.5
56594;BME280;42474;51.660;5.824;2023-08-20T22:57:23;1022.4;;;19.4;92